Time,TemperatureF,DewpointF,PressureIn,WindDirection,WindDirectionDegrees,WindSpeedMPH,WindSpeedGustMPH,Humidity,HourlyPrecipIn,Conditions,Clouds,dailyrainin,SoftwareType,DateUTC
2013-03-26 00:14:00,55.3,39.0,30.06,NW,314,0.0,6.0,54,0.00,,,0.00,weatherlink.com 1.10,2013-03-26 04:14:00,
2013-03-26 00:30:00,55.4,38.0,30.06,NW,324,0.0,5.0,53,0.00,,,0.00,weatherlink.com 1.10,2013-03-26 04:30:00,
2013-03-26 00:45:00,55.5,38.0,30.06,North,360,0.0,4.0,52,0.00,,,0.00,weatherlink.com 1.10,2013-03-26 04:45:00,
2013-03-26 01:00:00,55.8,36.0,30.07,WSW,239,0.0,7.0,48,0.00,,,0.00,weatherlink.com 1.10,2013-03-26 05:00:00,
2013-03-26 01:15:00,56.2,33.0,30.07,NNW,327,0.0,12.0,42,0.00,,,0.00,weatherlink.com 1.10,2013-03-26 05:15:00,
2013-03-26 01:30:00,55.9,33.0,30.07,NW,309,2.0,10.0,43,0.00,,,0.00,weatherlink.com 1.10,2013-03-26 05:30:00,
2013-03-26 01:45:00,55.5,34.0,30.08,NE,55,1.0,3.0,44,0.00,,,0.00,weatherlink.com 1.10,2013-03-26 05:45:00,
2013-03-26 02:00:00,55.2,34.0,30.08,West,269,0.0,1.0,45,0.00,,,0.00,weatherlink.com 1.10,2013-03-26 06:00:00,
2013-03-26 02:15:00,54.9,34.0,30.08,WNW,299,0.0,6.0,45,0.00,,,0.00,weatherlink.com 1.10,2013-03-26 06:15:00,
2013-03-26 02:30:00,54.6,33.0,30.08,NNE,31,0.0,3.0,45,0.00,,,0.00,weatherlink.com 1.10,2013-03-26 06:30:00,
2013-03-26 02:45:00,54.2,31.0,30.09,WNW,283,0.0,7.0,41,0.00,,,0.00,weatherlink.com 1.10,2013-03-26 06:45:00,
2013-03-26 03:00:00,53.6,29.0,30.09,NNW,342,1.0,7.0,39,0.00,,,0.00,weatherlink.com 1.10,2013-03-26 07:00:00,
2013-03-26 03:15:00,52.8,30.0,30.09,WSW,248,1.0,11.0,42,0.00,,,0.00,weatherlink.com 1.10,2013-03-26 07:15:00,
2013-03-26 03:30:00,52.0,29.0,30.09,North,355,1.0,5.0,42,0.00,,,0.00,weatherlink.com 1.10,2013-03-26 07:30:00,
2013-03-26 03:45:00,51.3,29.0,30.09,NNW,335,0.0,3.0,42,0.00,,,0.00,weatherlink.com 1.10,2013-03-26 07:45:00,
2013-03-26 04:00:00,50.7,28.0,30.09,NE,39,0.0,3.0,42,0.00,,,0.00,weatherlink.com 1.10,2013-03-26 08:00:00,
2013-03-26 04:15:00,50.1,29.0,30.09,North,349,0.0,5.0,44,0.00,,,0.00,weatherlink.com 1.10,2013-03-26 08:15:00,
2013-03-26 04:30:00,49.7,28.0,30.10,North,5,0.0,3.0,43,0.00,,,0.00,weatherlink.com 1.10,2013-03-26 08:30:00,
2013-03-26 04:45:00,49.1,28.0,30.10,SW,215,0.0,6.0,44,0.00,,,0.00,weatherlink.com 1.10,2013-03-26 08:45:00,
2013-03-26 05:00:00,48.8,29.0,30.11,NNW,336,0.0,1.0,46,0.00,,,0.00,weatherlink.com 1.10,2013-03-26 09:00:00,
2013-03-26 05:15:00,48.3,29.0,30.11,West,278,0.0,1.0,47,0.00,,,0.00,weatherlink.com 1.10,2013-03-26 09:15:00,
2013-03-26 05:30:00,47.4,28.0,30.11,NNW,330,0.0,2.0,48,0.00,,,0.00,weatherlink.com 1.10,2013-03-26 09:30:00,
2013-03-26 05:45:00,47.1,28.0,30.11,WNW,293,0.0,6.0,48,0.00,,,0.00,weatherlink.com 1.10,2013-03-26 09:45:00,
2013-03-26 06:00:00,46.8,29.0,30.12,West,269,0.0,4.0,50,0.00,,,0.00,weatherlink.com 1.10,2013-03-26 10:00:00,
2013-03-26 06:15:00,46.2,28.0,30.12,NNW,344,0.0,8.0,49,0.00,,,0.00,weatherlink.com 1.10,2013-03-26 10:15:00,
2013-03-26 06:30:00,46.1,28.0,30.12,NE,43,1.0,5.0,50,0.00,,,0.00,weatherlink.com 1.10,2013-03-26 10:30:00,
2013-03-26 06:45:00,45.9,29.0,30.13,North,11,0.0,5.0,52,0.00,,,0.00,weatherlink.com 1.10,2013-03-26 10:45:00,
2013-03-26 07:00:00,45.6,29.0,30.13,North,355,0.0,6.0,53,0.00,,,0.00,weatherlink.com 1.10,2013-03-26 11:00:00,
2013-03-26 07:15:00,45.5,30.0,30.14,NW,326,2.0,9.0,54,0.00,,,0.00,weatherlink.com 1.10,2013-03-26 11:15:00,
2013-03-26 07:30:00,45.3,31.0,30.15,NNW,333,3.0,8.0,57,0.00,,,0.00,weatherlink.com 1.10,2013-03-26 11:30:00,
2013-03-26 07:45:00,45.2,30.0,30.15,North,5,0.0,12.0,55,0.00,,,0.00,weatherlink.com 1.10,2013-03-26 11:45:00,
2013-03-26 08:01:00,45.1,30.0,30.16,NW,305,0.0,10.0,56,0.00,,,0.00,weatherlink.com 1.10,2013-03-26 12:01:00,
2013-03-26 08:16:00,45.3,31.0,30.17,NNW,331,0.0,9.0,57,0.00,,,0.00,weatherlink.com 1.10,2013-03-26 12:16:00,
2013-03-26 08:31:00,45.6,31.0,30.17,NE,55,1.0,6.0,56,0.00,,,0.00,weatherlink.com 1.10,2013-03-26 12:31:00,
2013-03-26 08:46:00,46.0,30.0,30.18,NW,319,1.0,9.0,53,0.00,,,0.00,weatherlink.com 1.10,2013-03-26 12:46:00,
2013-03-26 09:16:00,46.9,30.0,30.19,ENE,61,0.0,11.0,52,0.00,,,0.00,weatherlink.com 1.10,2013-03-26 13:16:00,
2013-03-26 09:46:00,47.6,30.0,30.19,WNW,294,0.0,5.0,50,0.00,,,0.00,weatherlink.com 1.10,2013-03-26 13:46:00,
2013-03-26 11:01:00,49.5,29.0,30.19,North,9,1.0,18.0,45,0.00,,,0.00,weatherlink.com 1.10,2013-03-26 15:01:00,
2013-03-26 11:30:00,50.0,27.0,30.19,WNW,294,7.0,10.0,41,0.00,,,0.00,weatherlink.com 1.10,2013-03-26 15:30:00,
2013-03-26 11:45:00,49.9,27.0,30.19,West,278,6.0,18.0,41,0.00,,,0.00,weatherlink.com 1.10,2013-03-26 15:45:00,
2013-03-26 12:00:00,50.5,30.0,30.19,West,275,8.0,15.0,45,0.00,,,0.00,weatherlink.com 1.10,2013-03-26 16:00:00,
2013-03-26 12:15:00,51.4,28.0,30.19,NNE,30,1.0,17.0,40,0.00,,,0.00,weatherlink.com 1.10,2013-03-26 16:15:00,
2013-03-26 12:30:00,51.1,23.0,30.19,NW,306,3.0,21.0,34,0.00,,,0.00,weatherlink.com 1.10,2013-03-26 16:30:00,
2013-03-26 12:45:00,51.1,23.0,30.18,West,261,16.0,20.0,33,0.00,,,0.00,weatherlink.com 1.10,2013-03-26 16:45:00,
2013-03-26 13:00:00,51.8,23.0,30.18,West,265,6.0,21.0,33,0.00,,,0.00,weatherlink.com 1.10,2013-03-26 17:00:00,
2013-03-26 13:15:00,53.2,23.0,30.18,WSW,248,8.0,16.0,31,0.00,,,0.00,weatherlink.com 1.10,2013-03-26 17:15:00,
2013-03-26 13:30:00,52.4,24.0,30.17,West,267,16.0,24.0,33,0.00,,,0.00,weatherlink.com 1.10,2013-03-26 17:30:00,
2013-03-26 13:45:00,53.3,22.0,30.16,West,273,16.0,22.0,29,0.00,,,0.00,weatherlink.com 1.10,2013-03-26 17:45:00,
2013-03-26 14:00:00,54.8,21.0,30.16,West,263,10.0,23.0,27,0.00,,,0.00,weatherlink.com 1.10,2013-03-26 18:00:00,
2013-03-26 14:15:00,54.7,23.0,30.15,WSW,257,7.0,16.0,29,0.00,,,0.00,weatherlink.com 1.10,2013-03-26 18:15:00,
2013-03-26 14:30:00,56.1,25.0,30.15,WSW,245,4.0,26.0,30,0.00,,,0.00,weatherlink.com 1.10,2013-03-26 18:30:00,
2013-03-26 14:45:00,55.8,20.0,30.14,West,269,10.0,19.0,25,0.00,,,0.00,weatherlink.com 1.10,2013-03-26 18:45:00,
2013-03-26 15:00:00,57.3,23.0,30.14,WNW,291,2.0,18.0,27,0.00,,,0.00,weatherlink.com 1.10,2013-03-26 19:00:00,
2013-03-26 15:15:00,56.6,24.0,30.12,West,277,13.0,22.0,28,0.00,,,0.00,weatherlink.com 1.10,2013-03-26 19:15:00,
2013-03-26 15:30:00,57.5,21.0,30.13,WNW,301,9.0,20.0,24,0.00,,,0.00,weatherlink.com 1.10,2013-03-26 19:30:00,
2013-03-26 15:45:00,58.1,29.0,30.13,WSW,250,15.0,19.0,33,0.00,,,0.00,weatherlink.com 1.10,2013-03-26 19:45:00,
2013-03-26 16:00:00,56.7,28.0,30.13,West,271,19.0,25.0,34,0.00,,,0.00,weatherlink.com 1.10,2013-03-26 20:00:00,
2013-03-26 16:15:00,56.2,29.0,30.12,West,274,21.0,25.0,35,0.00,,,0.00,weatherlink.com 1.10,2013-03-26 20:15:00,
2013-03-26 16:30:00,56.6,34.0,30.12,WNW,290,12.0,26.0,43,0.00,,,0.00,weatherlink.com 1.10,2013-03-26 20:30:00,
2013-03-26 16:45:00,56.2,32.0,30.12,WSW,257,10.0,24.0,40,0.00,,,0.00,weatherlink.com 1.10,2013-03-26 20:45:00,
2013-03-26 17:00:00,56.0,32.0,30.12,West,266,18.0,26.0,41,0.00,,,0.00,weatherlink.com 1.10,2013-03-26 21:00:00,
2013-03-26 17:15:00,56.1,31.0,30.13,WSW,254,6.0,21.0,38,0.00,,,0.00,weatherlink.com 1.10,2013-03-26 21:15:00,
2013-03-26 17:30:00,55.4,35.0,30.12,WSW,252,18.0,22.0,47,0.00,,,0.00,weatherlink.com 1.10,2013-03-26 21:30:00,
2013-03-26 17:45:00,56.1,33.0,30.13,West,265,12.0,19.0,42,0.00,,,0.00,weatherlink.com 1.10,2013-03-26 21:45:00,
2013-03-26 18:00:00,55.3,34.0,30.13,WSW,253,13.0,19.0,45,0.00,,,0.00,weatherlink.com 1.10,2013-03-26 22:00:00,
2013-03-26 18:15:00,55.5,31.0,30.14,West,277,8.0,18.0,40,0.00,,,0.00,weatherlink.com 1.10,2013-03-26 22:15:00,
2013-03-26 18:30:00,55.8,33.0,30.14,NW,313,3.0,21.0,42,0.00,,,0.00,weatherlink.com 1.10,2013-03-26 22:30:00,
2013-03-26 18:45:00,54.9,35.0,30.14,WSW,254,7.0,19.0,48,0.00,,,0.00,weatherlink.com 1.10,2013-03-26 22:45:00,
2013-03-26 19:00:00,55.0,35.0,30.15,WSW,257,13.0,17.0,48,0.00,,,0.00,weatherlink.com 1.10,2013-03-26 23:00:00,
2013-03-26 19:15:00,54.5,34.0,30.16,WSW,257,10.0,18.0,47,0.00,,,0.00,weatherlink.com 1.10,2013-03-26 23:15:00,
2013-03-26 19:30:00,54.0,34.0,30.17,WSW,256,12.0,20.0,48,0.00,,,0.00,weatherlink.com 1.10,2013-03-26 23:30:00,
2013-03-26 19:45:00,53.7,37.0,30.18,WSW,254,10.0,16.0,53,0.00,,,0.00,weatherlink.com 1.10,2013-03-26 23:45:00,
2013-03-26 20:00:00,52.6,35.0,30.19,WNW,299,9.0,14.0,51,0.00,,,0.00,weatherlink.com 1.10,2013-03-27 00:00:00,
2013-03-26 20:15:00,52.2,35.0,30.20,WNW,288,6.0,12.0,52,0.00,,,0.00,weatherlink.com 1.10,2013-03-27 00:15:00,
2013-03-26 20:31:00,51.4,35.0,30.20,West,270,13.0,18.0,54,0.00,,,0.00,weatherlink.com 1.10,2013-03-27 00:31:00,
2013-03-26 20:46:00,50.8,35.0,30.21,West,272,5.0,10.0,56,0.00,,,0.00,weatherlink.com 1.10,2013-03-27 00:46:00,
2013-03-26 21:01:00,50.2,35.0,30.21,West,276,6.0,14.0,56,0.00,,,0.00,weatherlink.com 1.10,2013-03-27 01:01:00,
2013-03-26 21:16:00,49.8,35.0,30.22,WNW,282,9.0,13.0,58,0.00,,,0.00,weatherlink.com 1.10,2013-03-27 01:16:00,
2013-03-26 21:31:00,49.5,35.0,30.23,West,278,9.0,14.0,58,0.00,,,0.00,weatherlink.com 1.10,2013-03-27 01:31:00,
2013-03-26 23:01:00,47.1,35.0,30.26,WSW,245,0.0,5.0,63,0.00,,,0.00,weatherlink.com 1.10,2013-03-27 03:01:00,
2013-03-26 23:16:00,46.9,35.0,30.27,NNW,331,0.0,4.0,63,0.00,,,0.00,weatherlink.com 1.10,2013-03-27 03:16:00,
2013-03-26 23:31:00,46.5,35.0,30.27,WNW,298,1.0,3.0,64,0.00,,,0.00,weatherlink.com 1.10,2013-03-27 03:31:00,